sensor_id;sensor_type;location;lat;lon;timestamp;pressure;altitude;pressure_sealevel;temperature;humidity
73106;BME280;61559;50.476;15.588;2023-04-25T00:01:29;96744.23;;;7.35;79.49
73106;BME280;61559;50.476;15.588;2023-04-25T00:04:01;96743.20;;;7.33;79.47
73106;BME280;61559;50.476;15.588;2023-04-25T00:06:33;96743.96;;;7.30;79.32
73106;BME280;61559;50.476;15.588;2023-04-25T00:09:06;96741.71;;;7.27;79.55
73106;BME280;61559;50.476;15.588;2023-04-25T00:11:39;96738.91;;;7.17;79.79
73106;BME280;61559;50.476;15.588;2023-04-25T00:14:11;96739.36;;;7.11;79.81
73106;BME280;61559;50.476;15.588;2023-04-25T00:16:42;96740.75;;;7.06;79.93
73106;BME280;61559;50.476;15.588;2023-04-25T00:19:13;96743.22;;;7.02;79.91
73106;BME280;61559;50.476;15.588;2023-04-25T00:21:45;96745.51;;;7.01;79.87
73106;BME280;61559;50.476;15.588;2023-04-25T00:24:16;96747.31;;;6.98;79.87
73106;BME280;61559;50.476;15.588;2023-04-25T00:26:46;96752.59;;;6.95;79.89
73106;BME280;61559;50.476;15.588;2023-04-25T00:29:17;96750.13;;;6.88;79.98
73106;BME280;61559;50.476;15.588;2023-04-25T00:31:48;96748.86;;;6.86;80.14
73106;BME280;61559;50.476;15.588;2023-04-25T00:34:20;96751.36;;;6.83;80.25
73106;BME280;61559;50.476;15.588;2023-04-25T00:36:51;96748.49;;;6.81;80.29
73106;BME280;61559;50.476;15.588;2023-04-25T00:39:22;96746.66;;;6.79;80.60
73106;BME280;61559;50.476;15.588;2023-04-25T00:41:54;96743.55;;;6.75;80.44
73106;BME280;61559;50.476;15.588;2023-04-25T00:44:26;96745.89;;;6.70;80.51
73106;BME280;61559;50.476;15.588;2023-04-25T00:46:59;96745.56;;;6.68;80.60
73106;BME280;61559;50.476;15.588;2023-04-25T00:49:31;96745.33;;;6.67;80.77
73106;BME280;61559;50.476;15.588;2023-04-25T00:52:00;96749.13;;;6.66;80.93
73106;BME280;61559;50.476;15.588;2023-04-25T00:54:32;96755.00;;;6.65;81.00
73106;BME280;61559;50.476;15.588;2023-04-25T00:57:03;96749.95;;;6.63;80.99
73106;BME280;61559;50.476;15.588;2023-04-25T00:59:34;96748.61;;;6.59;80.97
73106;BME280;61559;50.476;15.588;2023-04-25T01:02:07;96750.11;;;6.56;81.03
73106;BME280;61559;50.476;15.588;2023-04-25T01:04:39;96752.25;;;6.55;80.98
73106;BME280;61559;50.476;15.588;2023-04-25T01:07:11;96750.43;;;6.54;81.07
73106;BME280;61559;50.476;15.588;2023-04-25T01:09:42;96749.86;;;6.52;81.11
73106;BME280;61559;50.476;15.588;2023-04-25T01:12:14;96752.53;;;6.52;81.18
73106;BME280;61559;50.476;15.588;2023-04-25T01:14:45;96755.73;;;6.51;81.32
73106;BME280;61559;50.476;15.588;2023-04-25T01:17:17;96754.27;;;6.50;81.47
73106;BME280;61559;50.476;15.588;2023-04-25T01:19:48;96750.33;;;6.50;81.43
73106;BME280;61559;50.476;15.588;2023-04-25T01:22:20;96745.70;;;6.49;81.40
73106;BME280;61559;50.476;15.588;2023-04-25T01:24:51;96748.44;;;6.48;81.44
73106;BME280;61559;50.476;15.588;2023-04-25T01:27:23;96751.57;;;6.48;81.46
73106;BME280;61559;50.476;15.588;2023-04-25T01:29:55;96751.23;;;6.47;81.61
73106;BME280;61559;50.476;15.588;2023-04-25T01:32:27;96752.23;;;6.48;81.61
73106;BME280;61559;50.476;15.588;2023-04-25T01:34:58;96752.20;;;6.49;81.74
73106;BME280;61559;50.476;15.588;2023-04-25T01:37:31;96750.58;;;6.50;81.73
73106;BME280;61559;50.476;15.588;2023-04-25T01:40:02;96746.25;;;6.51;81.81
73106;BME280;61559;50.476;15.588;2023-04-25T01:42:36;96745.08;;;6.52;81.81
73106;BME280;61559;50.476;15.588;2023-04-25T01:45:10;96743.77;;;6.52;81.84
73106;BME280;61559;50.476;15.588;2023-04-25T01:47:41;96744.68;;;6.51;81.82
73106;BME280;61559;50.476;15.588;2023-04-25T01:50:13;96739.55;;;6.44;81.73
73106;BME280;61559;50.476;15.588;2023-04-25T01:52:45;96745.21;;;6.35;81.75
73106;BME280;61559;50.476;15.588;2023-04-25T01:55:16;96744.55;;;6.27;81.94
73106;BME280;61559;50.476;15.588;2023-04-25T01:57:47;96746.38;;;6.24;82.19
73106;BME280;61559;50.476;15.588;2023-04-25T02:00:17;96742.70;;;6.23;82.40
73106;BME280;61559;50.476;15.588;2023-04-25T02:02:48;96741.59;;;6.23;82.59
73106;BME280;61559;50.476;15.588;2023-04-25T02:05:20;96742.30;;;6.25;82.62
73106;BME280;61559;50.476;15.588;2023-04-25T02:07:52;96739.29;;;6.29;82.80
73106;BME280;61559;50.476;15.588;2023-04-25T02:10:23;96737.77;;;6.32;82.90
73106;BME280;61559;50.476;15.588;2023-04-25T02:12:52;96740.09;;;6.33;82.62
73106;BME280;61559;50.476;15.588;2023-04-25T02:15:24;96741.34;;;6.29;82.69
73106;BME280;61559;50.476;15.588;2023-04-25T02:17:55;96733.20;;;6.25;82.74
73106;BME280;61559;50.476;15.588;2023-04-25T02:20:28;96730.49;;;6.25;82.82
73106;BME280;61559;50.476;15.588;2023-04-25T02:23:00;96727.73;;;6.27;82.76
73106;BME280;61559;50.476;15.588;2023-04-25T02:25:29;96729.37;;;6.29;82.84
73106;BME280;61559;50.476;15.588;2023-04-25T02:28:00;96730.09;;;6.29;82.86
73106;BME280;61559;50.476;15.588;2023-04-25T02:30:32;96729.29;;;6.30;82.82
73106;BME280;61559;50.476;15.588;2023-04-25T02:33:01;96725.95;;;6.31;82.85
73106;BME280;61559;50.476;15.588;2023-04-25T02:35:33;96725.21;;;6.29;82.85
73106;BME280;61559;50.476;15.588;2023-04-25T02:38:04;96725.91;;;6.30;82.90
73106;BME280;61559;50.476;15.588;2023-04-25T02:40:37;96725.58;;;6.31;82.82
73106;BME280;61559;50.476;15.588;2023-04-25T02:43:08;96726.66;;;6.32;82.80
73106;BME280;61559;50.476;15.588;2023-04-25T02:45:39;96727.31;;;6.35;82.83
73106;BME280;61559;50.476;15.588;2023-04-25T02:48:08;96725.05;;;6.35;82.67
73106;BME280;61559;50.476;15.588;2023-04-25T02:50:39;96724.60;;;6.33;82.60
73106;BME280;61559;50.476;15.588;2023-04-25T02:53:10;96719.52;;;6.34;82.68
73106;BME280;61559;50.476;15.588;2023-04-25T02:55:41;96723.81;;;6.34;82.89
73106;BME280;61559;50.476;15.588;2023-04-25T02:58:10;96714.98;;;6.36;82.90
73106;BME280;61559;50.476;15.588;2023-04-25T03:00:42;96717.23;;;6.35;83.03
73106;BME280;61559;50.476;15.588;2023-04-25T03:03:11;96718.59;;;6.36;82.98
73106;BME280;61559;50.476;15.588;2023-04-25T03:05:43;96717.47;;;6.36;82.92
73106;BME280;61559;50.476;15.588;2023-04-25T03:08:14;96718.11;;;6.35;83.09
73106;BME280;61559;50.476;15.588;2023-04-25T03:10:44;96719.39;;;6.35;83.10
73106;BME280;61559;50.476;15.588;2023-04-25T03:13:16;96718.70;;;6.32;83.18
73106;BME280;61559;50.476;15.588;2023-04-25T03:15:45;96723.96;;;6.32;83.34
73106;BME280;61559;50.476;15.588;2023-04-25T03:18:16;96721.44;;;6.33;83.42
73106;BME280;61559;50.476;15.588;2023-04-25T03:20:47;96722.11;;;6.37;83.33
73106;BME280;61559;50.476;15.588;2023-04-25T03:23:18;96719.48;;;6.38;83.10
73106;BME280;61559;50.476;15.588;2023-04-25T03:25:49;96722.14;;;6.39;82.90
73106;BME280;61559;50.476;15.588;2023-04-25T03:28:20;96721.57;;;6.39;82.81
73106;BME280;61559;50.476;15.588;2023-04-25T03:30:51;96716.98;;;6.36;82.48
73106;BME280;61559;50.476;15.588;2023-04-25T03:33:23;96717.38;;;6.34;82.32
73106;BME280;61559;50.476;15.588;2023-04-25T03:35:55;96715.98;;;6.30;82.26
73106;BME280;61559;50.476;15.588;2023-04-25T03:38:26;96717.63;;;6.28;82.21
73106;BME280;61559;50.476;15.588;2023-04-25T03:40:57;96719.36;;;6.22;82.05
73106;BME280;61559;50.476;15.588;2023-04-25T03:43:28;96715.55;;;6.17;81.96
73106;BME280;61559;50.476;15.588;2023-04-25T03:46:00;96716.17;;;6.14;81.90
73106;BME280;61559;50.476;15.588;2023-04-25T03:48:31;96716.86;;;6.07;81.77
73106;BME280;61559;50.476;15.588;2023-04-25T03:51:03;96714.77;;;6.00;81.71
73106;BME280;61559;50.476;15.588;2023-04-25T03:53:32;96724.10;;;5.95;81.75
73106;BME280;61559;50.476;15.588;2023-04-25T03:56:04;96724.48;;;5.85;81.89
73106;BME280;61559;50.476;15.588;2023-04-25T03:58:35;96724.23;;;5.76;82.15
73106;BME280;61559;50.476;15.588;2023-04-25T04:01:06;96725.15;;;5.70;82.10
73106;BME280;61559;50.476;15.588;2023-04-25T04:03:37;96731.85;;;5.63;82.02
73106;BME280;61559;50.476;15.588;2023-04-25T04:06:09;96735.82;;;5.55;82.16
73106;BME280;61559;50.476;15.588;2023-04-25T04:08:39;96733.39;;;5.50;81.98
73106;BME280;61559;50.476;15.588;2023-04-25T04:11:10;96733.31;;;5.42;81.73
73106;BME280;61559;50.476;15.588;2023-04-25T04:13:39;96727.92;;;5.37;81.90
73106;BME280;61559;50.476;15.588;2023-04-25T04:16:10;96728.13;;;5.30;81.75
73106;BME280;61559;50.476;15.588;2023-04-25T04:18:42;96731.69;;;5.24;81.36
73106;BME280;61559;50.476;15.588;2023-04-25T04:21:13;96732.88;;;5.18;81.46
73106;BME280;61559;50.476;15.588;2023-04-25T04:23:44;96737.16;;;5.13;81.63
73106;BME280;61559;50.476;15.588;2023-04-25T04:26:17;96735.98;;;5.07;81.74
73106;BME280;61559;50.476;15.588;2023-04-25T04:28:48;96733.80;;;5.01;81.98
73106;BME280;61559;50.476;15.588;2023-04-25T04:31:20;96734.44;;;4.98;81.92
73106;BME280;61559;50.476;15.588;2023-04-25T04:33:49;96738.86;;;4.96;81.86
73106;BME280;61559;50.476;15.588;2023-04-25T04:36:21;96741.23;;;4.92;81.86
73106;BME280;61559;50.476;15.588;2023-04-25T04:38:53;96747.40;;;4.90;81.86
73106;BME280;61559;50.476;15.588;2023-04-25T04:41:25;96747.83;;;4.89;81.79
73106;BME280;61559;50.476;15.588;2023-04-25T04:43:57;96745.65;;;4.86;81.87
73106;BME280;61559;50.476;15.588;2023-04-25T04:46:31;96744.34;;;4.83;81.89
73106;BME280;61559;50.476;15.588;2023-04-25T04:49:07;96746.30;;;4.82;81.85
73106;BME280;61559;50.476;15.588;2023-04-25T04:51:39;96745.00;;;4.81;81.81
73106;BME280;61559;50.476;15.588;2023-04-25T04:54:10;96747.36;;;4.80;81.71
73106;BME280;61559;50.476;15.588;2023-04-25T04:56:42;96745.76;;;4.78;81.79
73106;BME280;61559;50.476;15.588;2023-04-25T04:59:11;96746.45;;;4.78;81.82
73106;BME280;61559;50.476;15.588;2023-04-25T05:01:42;96742.82;;;4.72;81.75
73106;BME280;61559;50.476;15.588;2023-04-25T05:04:13;96744.27;;;4.69;82.00
73106;BME280;61559;50.476;15.588;2023-04-25T05:06:45;96744.99;;;4.68;82.09
73106;BME280;61559;50.476;15.588;2023-04-25T05:09:17;96745.05;;;4.68;82.20
73106;BME280;61559;50.476;15.588;2023-04-25T05:11:49;96742.47;;;4.70;82.23
73106;BME280;61559;50.476;15.588;2023-04-25T05:14:20;96741.26;;;4.72;82.20
73106;BME280;61559;50.476;15.588;2023-04-25T05:16:51;96742.52;;;4.78;82.39
73106;BME280;61559;50.476;15.588;2023-04-25T05:19:22;96741.69;;;4.83;82.53
73106;BME280;61559;50.476;15.588;2023-04-25T05:21:54;96739.16;;;4.89;82.62
73106;BME280;61559;50.476;15.588;2023-04-25T05:24:25;96741.73;;;4.95;82.59
73106;BME280;61559;50.476;15.588;2023-04-25T05:26:54;96740.46;;;5.02;82.56
73106;BME280;61559;50.476;15.588;2023-04-25T05:29:25;96738.23;;;5.08;82.65
73106;BME280;61559;50.476;15.588;2023-04-25T05:31:56;96734.65;;;5.18;82.81
73106;BME280;61559;50.476;15.588;2023-04-25T05:34:28;96734.64;;;5.29;82.89
73106;BME280;61559;50.476;15.588;2023-04-25T05:36:59;96734.20;;;5.39;82.90
73106;BME280;61559;50.476;15.588;2023-04-25T05:39:30;96735.65;;;5.51;82.88
73106;BME280;61559;50.476;15.588;2023-04-25T05:42:01;96734.55;;;5.63;82.95
73106;BME280;61559;50.476;15.588;2023-04-25T05:44:33;96736.38;;;5.77;82.98
73106;BME280;61559;50.476;15.588;2023-04-25T05:47:04;96732.30;;;5.94;83.15
73106;BME280;61559;50.476;15.588;2023-04-25T05:49:36;96728.26;;;6.11;83.12
73106;BME280;61559;50.476;15.588;2023-04-25T05:52:07;96722.92;;;6.27;83.10
73106;BME280;61559;50.476;15.588;2023-04-25T05:54:36;96721.98;;;6.43;83.29
73106;BME280;61559;50.476;15.588;2023-04-25T05:57:07;96727.78;;;6.59;83.23
73106;BME280;61559;50.476;15.588;2023-04-25T05:59:38;96728.74;;;6.77;82.69
73106;BME280;61559;50.476;15.588;2023-04-25T06:02:08;96733.23;;;6.92;80.52
73106;BME280;61559;50.476;15.588;2023-04-25T06:04:40;96733.48;;;7.03;79.34
73106;BME280;61559;50.476;15.588;2023-04-25T06:07:09;96735.71;;;7.20;78.61
73106;BME280;61559;50.476;15.588;2023-04-25T06:09:40;96737.00;;;7.33;78.06
73106;BME280;61559;50.476;15.588;2023-04-25T06:12:11;96732.38;;;7.49;77.27
73106;BME280;61559;50.476;15.588;2023-04-25T06:14:42;96728.64;;;7.62;76.09
73106;BME280;61559;50.476;15.588;2023-04-25T06:17:13;96726.83;;;7.76;75.74
73106;BME280;61559;50.476;15.588;2023-04-25T06:19:43;96724.19;;;7.90;74.41
73106;BME280;61559;50.476;15.588;2023-04-25T06:22:14;96719.95;;;8.02;73.07
73106;BME280;61559;50.476;15.588;2023-04-25T06:24:43;96721.30;;;8.10;72.54
73106;BME280;61559;50.476;15.588;2023-04-25T06:27:16;96723.03;;;8.17;72.31
73106;BME280;61559;50.476;15.588;2023-04-25T06:29:48;96723.50;;;8.28;72.29
73106;BME280;61559;50.476;15.588;2023-04-25T06:32:19;96720.14;;;8.41;71.64
73106;BME280;61559;50.476;15.588;2023-04-25T06:34:50;96715.73;;;8.57;71.21
73106;BME280;61559;50.476;15.588;2023-04-25T06:37:19;96719.02;;;8.71;69.35
73106;BME280;61559;50.476;15.588;2023-04-25T06:39:50;96725.66;;;8.76;67.02
73106;BME280;61559;50.476;15.588;2023-04-25T06:42:20;96724.65;;;8.83;66.58
73106;BME280;61559;50.476;15.588;2023-04-25T06:44:51;96717.96;;;8.89;66.16
73106;BME280;61559;50.476;15.588;2023-04-25T06:47:22;96725.48;;;8.97;65.93
73106;BME280;61559;50.476;15.588;2023-04-25T06:49:53;96722.11;;;9.03;65.52
73106;BME280;61559;50.476;15.588;2023-04-25T06:52:22;96718.56;;;9.08;65.16
73106;BME280;61559;50.476;15.588;2023-04-25T06:54:52;96714.95;;;9.10;64.49
73106;BME280;61559;50.476;15.588;2023-04-25T06:57:22;96714.68;;;9.11;64.70
73106;BME280;61559;50.476;15.588;2023-04-25T06:59:53;96714.86;;;9.11;64.38
73106;BME280;61559;50.476;15.588;2023-04-25T07:02:24;96715.95;;;9.16;64.94
73106;BME280;61559;50.476;15.588;2023-04-25T07:04:55;96713.64;;;9.23;65.22
73106;BME280;61559;50.476;15.588;2023-04-25T07:07:29;96712.88;;;9.31;64.46
73106;BME280;61559;50.476;15.588;2023-04-25T07:10:00;96710.03;;;9.34;63.74
73106;BME280;61559;50.476;15.588;2023-04-25T07:12:32;96713.08;;;9.39;63.36
73106;BME280;61559;50.476;15.588;2023-04-25T07:15:03;96716.23;;;9.41;63.95
73106;BME280;61559;50.476;15.588;2023-04-25T07:17:35;96719.98;;;9.41;63.06
73106;BME280;61559;50.476;15.588;2023-04-25T07:20:08;96716.69;;;9.40;63.45
73106;BME280;61559;50.476;15.588;2023-04-25T07:22:39;96719.45;;;9.39;62.49
73106;BME280;61559;50.476;15.588;2023-04-25T07:25:09;96715.50;;;9.35;61.71
73106;BME280;61559;50.476;15.588;2023-04-25T07:27:40;96712.02;;;9.32;62.55
73106;BME280;61559;50.476;15.588;2023-04-25T07:30:12;96717.59;;;9.34;61.62
73106;BME280;61559;50.476;15.588;2023-04-25T07:32:43;96716.81;;;9.37;62.22
73106;BME280;61559;50.476;15.588;2023-04-25T07:35:15;96719.67;;;9.44;62.16
73106;BME280;61559;50.476;15.588;2023-04-25T07:37:46;96714.15;;;9.49;61.85
73106;BME280;61559;50.476;15.588;2023-04-25T07:40:16;96714.32;;;9.58;61.59
73106;BME280;61559;50.476;15.588;2023-04-25T07:42:47;96717.92;;;9.60;60.76
73106;BME280;61559;50.476;15.588;2023-04-25T07:45:18;96712.84;;;9.62;59.72
73106;BME280;61559;50.476;15.588;2023-04-25T07:47:50;96707.06;;;9.65;59.47
73106;BME280;61559;50.476;15.588;2023-04-25T07:50:22;96716.05;;;9.70;59.14
73106;BME280;61559;50.476;15.588;2023-04-25T07:52:53;96713.73;;;9.73;58.65
73106;BME280;61559;50.476;15.588;2023-04-25T07:55:24;96711.42;;;9.80;59.59
73106;BME280;61559;50.476;15.588;2023-04-25T07:57:55;96712.89;;;9.87;59.20
73106;BME280;61559;50.476;15.588;2023-04-25T08:00:27;96717.05;;;9.98;58.93
73106;BME280;61559;50.476;15.588;2023-04-25T08:02:58;96722.02;;;10.11;58.69
73106;BME280;61559;50.476;15.588;2023-04-25T08:05:29;96719.01;;;10.22;57.21
73106;BME280;61559;50.476;15.588;2023-04-25T08:08:00;96715.55;;;10.27;55.75
73106;BME280;61559;50.476;15.588;2023-04-25T08:10:32;96713.98;;;10.31;55.21
73106;BME280;61559;50.476;15.588;2023-04-25T08:13:01;96714.78;;;10.33;55.73
73106;BME280;61559;50.476;15.588;2023-04-25T08:15:32;96720.14;;;10.28;56.25
73106;BME280;61559;50.476;15.588;2023-04-25T08:18:03;96726.66;;;10.30;57.12
73106;BME280;61559;50.476;15.588;2023-04-25T08:20:34;96723.95;;;10.28;57.48
73106;BME280;61559;50.476;15.588;2023-04-25T08:23:05;96732.23;;;10.29;57.49
73106;BME280;61559;50.476;15.588;2023-04-25T08:25:36;96731.31;;;10.30;57.45
73106;BME280;61559;50.476;15.588;2023-04-25T08:28:07;96724.00;;;10.36;57.52
73106;BME280;61559;50.476;15.588;2023-04-25T08:30:39;96720.04;;;10.43;57.22
73106;BME280;61559;50.476;15.588;2023-04-25T08:33:10;96722.06;;;10.47;56.91
73106;BME280;61559;50.476;15.588;2023-04-25T08:35:41;96726.70;;;10.47;56.11
73106;BME280;61559;50.476;15.588;2023-04-25T08:38:12;96724.36;;;10.53;57.04
73106;BME280;61559;50.476;15.588;2023-04-25T08:40:44;96729.94;;;10.57;56.46
73106;BME280;61559;50.476;15.588;2023-04-25T08:43:20;96728.30;;;10.64;57.13
73106;BME280;61559;50.476;15.588;2023-04-25T08:45:54;96739.88;;;10.67;56.73
73106;BME280;61559;50.476;15.588;2023-04-25T08:48:31;96739.80;;;10.65;56.88
73106;BME280;61559;50.476;15.588;2023-04-25T08:51:04;96740.77;;;10.58;56.98
73106;BME280;61559;50.476;15.588;2023-04-25T08:53:42;96741.70;;;10.49;57.39
73106;BME280;61559;50.476;15.588;2023-04-25T08:56:17;96742.16;;;10.40;57.54
73106;BME280;61559;50.476;15.588;2023-04-25T08:58:50;96737.42;;;10.26;57.89
73106;BME280;61559;50.476;15.588;2023-04-25T09:01:22;96748.27;;;10.12;57.95
73106;BME280;61559;50.476;15.588;2023-04-25T09:03:53;96745.59;;;10.01;58.60
73106;BME280;61559;50.476;15.588;2023-04-25T09:06:25;96746.20;;;9.97;58.88
73106;BME280;61559;50.476;15.588;2023-04-25T09:09:03;96745.67;;;9.99;58.95
73106;BME280;61559;50.476;15.588;2023-04-25T09:11:36;96753.30;;;10.03;59.40
73106;BME280;61559;50.476;15.588;2023-04-25T09:14:14;96750.54;;;10.13;59.61
73106;BME280;61559;50.476;15.588;2023-04-25T09:17:02;96758.08;;;10.21;59.11
73106;BME280;61559;50.476;15.588;2023-04-25T09:19:35;96759.32;;;10.30;58.73
73106;BME280;61559;50.476;15.588;2023-04-25T09:22:11;96759.46;;;10.40;59.10
73106;BME280;61559;50.476;15.588;2023-04-25T09:24:43;96756.73;;;10.48;58.60
73106;BME280;61559;50.476;15.588;2023-04-25T09:27:21;96761.95;;;10.50;58.35
73106;BME280;61559;50.476;15.588;2023-04-25T09:29:58;96762.55;;;10.48;57.73
73106;BME280;61559;50.476;15.588;2023-04-25T09:32:30;96765.13;;;10.48;58.14
73106;BME280;61559;50.476;15.588;2023-04-25T09:35:02;96762.53;;;10.49;58.27
73106;BME280;61559;50.476;15.588;2023-04-25T09:37:36;96762.34;;;10.46;57.99
73106;BME280;61559;50.476;15.588;2023-04-25T09:40:06;96761.03;;;10.44;58.29
73106;BME280;61559;50.476;15.588;2023-04-25T09:42:42;96766.14;;;10.45;58.73
73106;BME280;61559;50.476;15.588;2023-04-25T09:45:15;96763.46;;;10.48;58.49
73106;BME280;61559;50.476;15.588;2023-04-25T09:47:46;96763.00;;;10.53;58.39
73106;BME280;61559;50.476;15.588;2023-04-25T09:50:17;96760.70;;;10.58;58.36
73106;BME280;61559;50.476;15.588;2023-04-25T09:53:03;96760.84;;;10.60;57.88
73106;BME280;61559;50.476;15.588;2023-04-25T09:55:36;96754.56;;;10.59;58.36
73106;BME280;61559;50.476;15.588;2023-04-25T09:58:07;96754.13;;;10.62;58.89
73106;BME280;61559;50.476;15.588;2023-04-25T10:00:40;96752.84;;;10.65;59.45
73106;BME280;61559;50.476;15.588;2023-04-25T10:03:12;96748.48;;;10.67;59.57
73106;BME280;61559;50.476;15.588;2023-04-25T10:05:44;96745.21;;;10.74;60.20
73106;BME280;61559;50.476;15.588;2023-04-25T10:08:16;96749.05;;;10.88;60.01
73106;BME280;61559;50.476;15.588;2023-04-25T10:10:48;96748.38;;;11.03;60.09
73106;BME280;61559;50.476;15.588;2023-04-25T10:13:20;96745.72;;;11.17;59.15
73106;BME280;61559;50.476;15.588;2023-04-25T10:15:53;96735.17;;;11.30;58.72
73106;BME280;61559;50.476;15.588;2023-04-25T10:18:26;96739.20;;;11.52;58.52
73106;BME280;61559;50.476;15.588;2023-04-25T10:20:59;96736.55;;;11.73;56.96
73106;BME280;61559;50.476;15.588;2023-04-25T10:23:31;96729.00;;;11.87;55.86
73106;BME280;61559;50.476;15.588;2023-04-25T10:26:04;96729.46;;;11.96;54.95
73106;BME280;61559;50.476;15.588;2023-04-25T10:28:56;96733.27;;;12.08;55.68
73106;BME280;61559;50.476;15.588;2023-04-25T10:31:28;96731.93;;;12.22;55.69
73106;BME280;61559;50.476;15.588;2023-04-25T10:34:01;96729.85;;;12.31;54.33
73106;BME280;61559;50.476;15.588;2023-04-25T10:36:34;96726.06;;;12.23;53.85
73106;BME280;61559;50.476;15.588;2023-04-25T10:39:07;96722.25;;;12.10;54.32
73106;BME280;61559;50.476;15.588;2023-04-25T10:41:52;96726.67;;;12.03;55.21
73106;BME280;61559;50.476;15.588;2023-04-25T10:44:23;96732.21;;;11.94;54.70
73106;BME280;61559;50.476;15.588;2023-04-25T10:46:58;96735.98;;;11.80;53.45
73106;BME280;61559;50.476;15.588;2023-04-25T10:49:33;96736.36;;;11.60;53.28
73106;BME280;61559;50.476;15.588;2023-04-25T10:52:16;96736.08;;;11.46;53.84
73106;BME280;61559;50.476;15.588;2023-04-25T10:54:53;96730.95;;;11.29;53.91
73106;BME280;61559;50.476;15.588;2023-04-25T10:57:29;96728.81;;;11.20;54.50
73106;BME280;61559;50.476;15.588;2023-04-25T11:00:04;96725.73;;;11.12;55.31
73106;BME280;61559;50.476;15.588;2023-04-25T11:02:42;96722.17;;;11.14;55.59
73106;BME280;61559;50.476;15.588;2023-04-25T11:05:22;96718.84;;;11.28;55.91
73106;BME280;61559;50.476;15.588;2023-04-25T11:07:54;96716.88;;;11.44;55.73
73106;BME280;61559;50.476;15.588;2023-04-25T11:10:31;96712.05;;;11.57;55.67
73106;BME280;61559;50.476;15.588;2023-04-25T11:13:03;96708.25;;;11.70;54.40
73106;BME280;61559;50.476;15.588;2023-04-25T11:15:34;96701.52;;;11.87;54.27
73106;BME280;61559;50.476;15.588;2023-04-25T11:18:05;96698.86;;;12.06;52.38
73106;BME280;61559;50.476;15.588;2023-04-25T11:20:39;96695.99;;;12.21;51.11
73106;BME280;61559;50.476;15.588;2023-04-25T11:23:14;96699.36;;;12.33;51.16
73106;BME280;61559;50.476;15.588;2023-04-25T11:25:46;96698.41;;;12.47;51.34
73106;BME280;61559;50.476;15.588;2023-04-25T11:28:21;96695.64;;;12.56;50.77
73106;BME280;61559;50.476;15.588;2023-04-25T11:30:55;96699.73;;;12.62;50.71
73106;BME280;61559;50.476;15.588;2023-04-25T11:33:27;96706.54;;;12.62;50.29
73106;BME280;61559;50.476;15.588;2023-04-25T11:35:58;96711.17;;;12.54;50.14
73106;BME280;61559;50.476;15.588;2023-04-25T11:38:29;96714.64;;;12.51;50.34
73106;BME280;61559;50.476;15.588;2023-04-25T11:41:00;96712.66;;;12.44;50.38
73106;BME280;61559;50.476;15.588;2023-04-25T11:43:31;96716.25;;;12.43;50.70
73106;BME280;61559;50.476;15.588;2023-04-25T11:46:07;96718.79;;;12.48;50.28
73106;BME280;61559;50.476;15.588;2023-04-25T11:48:42;96718.82;;;12.49;49.25
73106;BME280;61559;50.476;15.588;2023-04-25T11:51:14;96714.88;;;12.48;49.14
73106;BME280;61559;50.476;15.588;2023-04-25T11:53:48;96720.19;;;12.44;48.54
73106;BME280;61559;50.476;15.588;2023-04-25T11:56:19;96723.66;;;12.31;47.82
73106;BME280;61559;50.476;15.588;2023-04-25T11:58:58;96723.77;;;12.16;48.65
73106;BME280;61559;50.476;15.588;2023-04-25T12:01:32;96718.61;;;12.02;49.20
73106;BME280;61559;50.476;15.588;2023-04-25T12:04:15;96727.60;;;11.92;50.25
73106;BME280;61559;50.476;15.588;2023-04-25T12:06:48;96728.77;;;11.93;50.53
73106;BME280;61559;50.476;15.588;2023-04-25T12:09:27;96728.84;;;11.95;50.33
73106;BME280;61559;50.476;15.588;2023-04-25T12:11:59;96730.56;;;11.99;50.44
73106;BME280;61559;50.476;15.588;2023-04-25T12:14:34;96728.14;;;12.03;50.73
73106;BME280;61559;50.476;15.588;2023-04-25T12:17:06;96729.52;;;12.05;50.25
73106;BME280;61559;50.476;15.588;2023-04-25T12:19:39;96732.02;;;11.98;49.89
73106;BME280;61559;50.476;15.588;2023-04-25T12:22:24;96736.66;;;11.90;50.12
73106;BME280;61559;50.476;15.588;2023-04-25T12:24:55;96733.52;;;11.84;50.48
73106;BME280;61559;50.476;15.588;2023-04-25T12:27:28;96738.88;;;11.80;49.87
73106;BME280;61559;50.476;15.588;2023-04-25T12:29:59;96734.95;;;11.74;49.91
73106;BME280;61559;50.476;15.588;2023-04-25T12:32:31;96737.35;;;11.70;49.68
73106;BME280;61559;50.476;15.588;2023-04-25T12:35:02;96735.60;;;11.68;49.98
73106;BME280;61559;50.476;15.588;2023-04-25T12:37:34;96736.44;;;11.69;49.39
73106;BME280;61559;50.476;15.588;2023-04-25T12:40:07;96742.83;;;11.68;49.73
73106;BME280;61559;50.476;15.588;2023-04-25T12:42:39;96737.58;;;11.73;50.24
73106;BME280;61559;50.476;15.588;2023-04-25T12:45:11;96736.14;;;11.76;48.54
73106;BME280;61559;50.476;15.588;2023-04-25T12:47:42;96743.52;;;11.77;49.37
73106;BME280;61559;50.476;15.588;2023-04-25T12:50:13;96737.81;;;11.85;49.07
73106;BME280;61559;50.476;15.588;2023-04-25T12:52:44;96745.05;;;11.91;47.85
73106;BME280;61559;50.476;15.588;2023-04-25T12:55:16;96740.70;;;11.95;47.51
73106;BME280;61559;50.476;15.588;2023-04-25T12:57:47;96743.62;;;11.99;47.47
73106;BME280;61559;50.476;15.588;2023-04-25T13:00:19;96745.73;;;12.01;47.17
73106;BME280;61559;50.476;15.588;2023-04-25T13:02:50;96741.95;;;12.04;47.89
73106;BME280;61559;50.476;15.588;2023-04-25T13:05:21;96747.02;;;12.13;47.42
73106;BME280;61559;50.476;15.588;2023-04-25T13:07:52;96745.53;;;12.20;47.82
73106;BME280;61559;50.476;15.588;2023-04-25T13:10:23;96741.96;;;12.25;46.23
73106;BME280;61559;50.476;15.588;2023-04-25T13:12:55;96741.96;;;12.22;45.58
73106;BME280;61559;50.476;15.588;2023-04-25T13:15:26;96741.00;;;12.21;45.65
73106;BME280;61559;50.476;15.588;2023-04-25T13:17:57;96738.39;;;12.30;46.26
73106;BME280;61559;50.476;15.588;2023-04-25T13:20:28;96732.61;;;12.45;47.28